createdAt,value
2022-10-31T00:02:41.002Z,11.94
2022-10-31T00:05:46.254Z,11.95
2022-10-31T00:08:55.443Z,11.92
2022-10-31T00:12:02.414Z,11.89
2022-10-31T00:15:07.921Z,11.86
2022-10-31T00:18:14.671Z,11.80
2022-10-31T00:21:21.334Z,11.74
2022-10-31T00:24:26.062Z,11.68
2022-10-31T00:27:31.065Z,11.74
2022-10-31T00:30:36.126Z,11.71
2022-10-31T00:33:43.016Z,11.69
2022-10-31T00:36:47.956Z,11.65
2022-10-31T00:39:54.762Z,11.62
2022-10-31T00:42:59.950Z,11.58
2022-10-31T00:46:04.973Z,11.55
2022-10-31T00:49:13.072Z,11.52
2022-10-31T00:52:18.279Z,11.55
2022-10-31T00:55:23.292Z,11.51
2022-10-31T00:58:28.122Z,11.45
2022-10-31T01:01:34.767Z,11.39
2022-10-31T01:04:41.718Z,11.37
2022-10-31T01:07:47.049Z,11.38
2022-10-31T01:11:02.403Z,11.30
2022-10-31T01:14:07.098Z,11.34
2022-10-31T01:17:11.973Z,11.32
2022-10-31T01:20:20.461Z,11.29
2022-10-31T01:23:25.636Z,11.29
2022-10-31T01:26:32.044Z,11.27
2022-10-31T01:29:36.739Z,11.29
2022-10-31T01:32:41.468Z,11.31
2022-10-31T01:35:48.066Z,11.29
2022-10-31T01:38:53.710Z,11.32
2022-10-31T01:41:58.895Z,11.33
2022-10-31T01:45:05.301Z,11.26
2022-10-31T01:48:18.825Z,11.23
2022-10-31T01:51:30.812Z,11.22
2022-10-31T01:54:38.703Z,11.24
2022-10-31T01:57:50.193Z,11.21
2022-10-31T02:01:01.764Z,11.20
2022-10-31T02:04:11.079Z,11.22
2022-10-31T02:07:23.753Z,11.20
2022-10-31T02:10:33.435Z,11.20
2022-10-31T02:13:38.423Z,11.21
2022-10-31T02:16:43.045Z,11.23
2022-10-31T02:19:59.129Z,11.27
2022-10-31T02:23:37.085Z,11.30
2022-10-31T02:26:58.142Z,11.23
2022-10-31T02:30:17.286Z,11.20
2022-10-31T02:33:28.810Z,11.17
2022-10-31T02:36:42.055Z,11.18
2022-10-31T02:39:55.036Z,11.14
2022-10-31T02:43:08.142Z,11.17
2022-10-31T02:46:20.824Z,11.13
2022-10-31T02:49:35.081Z,11.14
2022-10-31T02:52:40.098Z,11.07
2022-10-31T02:55:58.211Z,11.04
2022-10-31T02:59:08.090Z,11.00
2022-10-31T03:02:38.617Z,10.93
2022-10-31T03:05:56.112Z,10.87
2022-10-31T03:09:09.811Z,10.83
2022-10-31T03:12:18.435Z,10.85
2022-10-31T03:15:28.203Z,10.89
2022-10-31T03:18:39.478Z,10.86
2022-10-31T03:21:49.742Z,10.72
2022-10-31T03:24:58.186Z,10.79
2022-10-31T03:28:05.879Z,10.74
2022-10-31T03:31:12.872Z,10.80
2022-10-31T03:34:21.038Z,10.81
2022-10-31T03:37:30.139Z,10.78
2022-10-31T03:40:37.889Z,10.79
2022-10-31T03:43:49.050Z,10.81
2022-10-31T03:46:54.249Z,10.77
2022-10-31T03:50:02.010Z,10.72
2022-10-31T03:53:15.094Z,10.80
2022-10-31T03:56:25.625Z,10.78
2022-10-31T03:59:35.173Z,10.79
2022-10-31T04:02:45.496Z,10.72
2022-10-31T04:05:52.492Z,10.70
2022-10-31T04:09:05.146Z,10.72
2022-10-31T04:12:12.046Z,10.75
2022-10-31T04:15:17.141Z,10.66
2022-10-31T04:18:21.932Z,10.59
2022-10-31T04:21:30.827Z,10.60
2022-10-31T04:24:37.217Z,10.57
2022-10-31T04:27:42.006Z,10.55
2022-10-31T04:30:47.395Z,10.53
2022-10-31T04:33:52.676Z,10.49
2022-10-31T04:36:57.797Z,10.52
2022-10-31T04:40:07.636Z,10.48
2022-10-31T04:43:12.417Z,10.41
2022-10-31T04:46:17.435Z,10.39
2022-10-31T04:49:22.038Z,10.35
2022-10-31T04:52:26.455Z,10.33
2022-10-31T04:55:33.384Z,10.28
2022-10-31T04:58:39.849Z,10.26
2022-10-31T05:01:45.133Z,10.31
2022-10-31T05:04:49.982Z,10.28
2022-10-31T05:07:57.411Z,10.28
2022-10-31T05:11:05.264Z,10.23
2022-10-31T05:14:10.292Z,10.23
2022-10-31T05:17:15.464Z,10.18
2022-10-31T05:20:22.837Z,10.22
2022-10-31T05:23:27.943Z,10.16
2022-10-31T05:26:34.213Z,10.15
2022-10-31T05:29:39.404Z,10.10
2022-10-31T05:32:46.067Z,10.14
2022-10-31T05:35:54.233Z,10.12
2022-10-31T05:38:59.442Z,10.13
2022-10-31T05:42:06.858Z,10.11
2022-10-31T05:45:15.070Z,9.99
2022-10-31T05:48:19.921Z,9.96
2022-10-31T05:51:25.166Z,9.97
2022-10-31T05:54:31.863Z,9.97
2022-10-31T05:57:38.202Z,9.96
2022-10-31T06:00:45.798Z,9.97
2022-10-31T06:03:50.855Z,9.94
2022-10-31T06:06:58.896Z,9.93
2022-10-31T06:10:03.784Z,9.88
2022-10-31T06:13:10.293Z,9.91
2022-10-31T06:16:15.534Z,9.93
2022-10-31T06:19:22.244Z,9.95
2022-10-31T06:22:28.863Z,9.97
2022-10-31T06:25:34.835Z,10.06
2022-10-31T06:28:41.008Z,10.09
2022-10-31T06:31:45.669Z,10.13
2022-10-31T06:34:51.744Z,10.17
2022-10-31T06:37:56.799Z,10.21
2022-10-31T06:41:06.031Z,10.26
2022-10-31T06:44:12.413Z,10.27
2022-10-31T06:47:16.968Z,10.34
2022-10-31T06:50:21.773Z,10.51
2022-10-31T06:53:28.235Z,10.54
2022-10-31T06:56:33.231Z,10.57
2022-10-31T06:59:39.791Z,10.58
2022-10-31T07:02:44.958Z,10.70
2022-10-31T07:05:49.652Z,10.75
2022-10-31T07:08:54.995Z,10.80
2022-10-31T07:11:59.992Z,10.88
2022-10-31T07:15:07.838Z,10.98
2022-10-31T07:18:14.092Z,11.08
2022-10-31T07:21:19.478Z,11.23
2022-10-31T07:24:25.287Z,11.32
2022-10-31T07:27:31.415Z,11.44
2022-10-31T07:30:38.324Z,11.58
2022-10-31T07:33:45.516Z,11.70
2022-10-31T07:36:50.110Z,11.77
2022-10-31T07:39:55.864Z,11.85
2022-10-31T07:43:02.080Z,11.91
2022-10-31T07:46:10.647Z,12.02
2022-10-31T07:49:15.495Z,12.06
2022-10-31T07:52:20.156Z,12.12
2022-10-31T07:55:24.890Z,12.20
2022-10-31T07:58:29.839Z,12.29
2022-10-31T08:01:35.725Z,12.42
2022-10-31T08:04:40.419Z,12.49
2022-10-31T08:07:45.057Z,12.61
2022-10-31T08:10:50.979Z,12.67
2022-10-31T08:13:55.797Z,12.81
2022-10-31T08:17:03.027Z,12.84
2022-10-31T08:20:09.197Z,12.92
2022-10-31T08:23:15.492Z,13.01
2022-10-31T08:26:20.457Z,13.05
2022-10-31T08:29:25.867Z,13.11
2022-10-31T08:32:32.476Z,13.19
2022-10-31T08:35:40.231Z,13.21
2022-10-31T08:38:45.442Z,13.27
2022-10-31T08:41:50.160Z,13.31
2022-10-31T08:44:57.135Z,13.36
2022-10-31T08:48:05.743Z,13.49
2022-10-31T08:51:12.023Z,13.48
2022-10-31T08:54:17.225Z,13.51
2022-10-31T08:57:22.230Z,13.54
2022-10-31T09:00:27.702Z,13.63
2022-10-31T09:03:35.098Z,13.70
2022-10-31T09:06:46.424Z,13.79
2022-10-31T09:10:02.230Z,13.91
2022-10-31T09:13:10.451Z,14.02
2022-10-31T09:16:17.589Z,14.13
2022-10-31T09:19:24.370Z,14.21
2022-10-31T09:22:29.359Z,14.36
2022-10-31T09:25:35.886Z,14.69
2022-10-31T09:28:42.592Z,15.18
2022-10-31T09:31:47.940Z,15.54
2022-10-31T09:34:54.619Z,15.80
2022-10-31T09:38:02.191Z,16.06
2022-10-31T09:41:19.285Z,16.11
2022-10-31T09:44:29.972Z,16.14
2022-10-31T09:47:49.196Z,16.25
2022-10-31T09:51:03.288Z,16.45
2022-10-31T09:54:14.409Z,16.44
2022-10-31T09:57:25.530Z,16.24
2022-10-31T10:00:30.681Z,16.10
2022-10-31T10:03:41.090Z,15.96
2022-10-31T10:06:50.936Z,15.82
2022-10-31T10:09:56.256Z,15.77
2022-10-31T10:13:20.170Z,15.70
2022-10-31T10:16:39.027Z,15.61
2022-10-31T10:19:57.731Z,15.57
2022-10-31T10:23:31.190Z,15.64
2022-10-31T10:26:40.485Z,15.68
2022-10-31T10:29:55.981Z,15.75
2022-10-31T10:33:08.957Z,15.84
2022-10-31T10:36:19.444Z,15.88
2022-10-31T10:39:34.683Z,15.99
2022-10-31T10:42:56.983Z,16.05
2022-10-31T10:46:33.062Z,16.14
2022-10-31T10:49:46.168Z,16.20
2022-10-31T10:53:00.521Z,16.27
2022-10-31T10:56:17.765Z,16.34
2022-10-31T10:59:25.235Z,16.35
2022-10-31T11:02:33.950Z,16.34
2022-10-31T11:05:42.232Z,16.37
2022-10-31T11:08:48.889Z,16.34
2022-10-31T11:11:56.006Z,16.40
2022-10-31T11:15:03.039Z,16.37
2022-10-31T11:18:08.428Z,16.37
2022-10-31T11:21:24.773Z,16.42
2022-10-31T11:24:30.684Z,16.53
2022-10-31T11:27:36.907Z,16.59
2022-10-31T11:30:48.836Z,16.67
2022-10-31T11:33:59.635Z,16.70
2022-10-31T11:37:12.555Z,16.75
2022-10-31T11:40:23.253Z,16.78
2022-10-31T11:43:31.099Z,16.84
2022-10-31T11:46:40.207Z,16.90
2022-10-31T11:49:46.739Z,16.94
2022-10-31T11:52:52.239Z,17.00
2022-10-31T11:56:15.611Z,17.03
2022-10-31T11:59:34.434Z,17.07
2022-10-31T12:02:41.757Z,17.10
2022-10-31T12:05:48.951Z,17.10
2022-10-31T12:08:53.798Z,17.12
2022-10-31T12:12:20.781Z,17.17
2022-10-31T12:15:33.697Z,17.21
2022-10-31T12:19:00.920Z,17.30
2022-10-31T12:22:11.891Z,17.46
2022-10-31T12:25:29.705Z,17.62
2022-10-31T12:29:05.558Z,17.83
2022-10-31T12:32:24.657Z,17.96
2022-10-31T12:35:43.180Z,17.95
2022-10-31T12:39:06.450Z,17.86
2022-10-31T12:42:21.151Z,17.75
2022-10-31T12:45:49.057Z,17.62
2022-10-31T12:49:22.208Z,17.53
2022-10-31T12:52:40.612Z,17.43
2022-10-31T12:55:58.156Z,17.37
2022-10-31T12:59:08.091Z,17.33
2022-10-31T13:02:23.012Z,17.26
2022-10-31T13:05:34.062Z,17.21
2022-10-31T13:08:45.481Z,17.17
2022-10-31T13:11:54.056Z,17.15
2022-10-31T13:15:03.009Z,17.13
2022-10-31T13:18:16.166Z,17.11
2022-10-31T13:21:26.211Z,17.07
2022-10-31T13:24:35.489Z,17.05
2022-10-31T13:27:46.011Z,17.06
2022-10-31T13:30:50.973Z,17.06
2022-10-31T13:33:59.443Z,17.08
2022-10-31T13:37:24.035Z,17.21
2022-10-31T13:40:40.707Z,17.43
2022-10-31T13:44:01.813Z,17.74
2022-10-31T13:47:30.238Z,18.09
2022-10-31T13:50:36.347Z,18.33
2022-10-31T13:53:47.428Z,18.44
2022-10-31T13:56:53.602Z,18.51
2022-10-31T14:00:01.144Z,18.39
2022-10-31T14:03:06.292Z,18.25
2022-10-31T14:06:12.823Z,18.13
2022-10-31T14:09:33.704Z,17.98
2022-10-31T14:12:39.890Z,17.93
2022-10-31T14:15:44.966Z,17.87
2022-10-31T14:18:51.052Z,17.79
2022-10-31T14:21:53.744Z,17.71
2022-10-31T14:24:57.806Z,17.62
2022-10-31T14:28:02.481Z,17.59
2022-10-31T14:31:37.739Z,17.49
2022-10-31T14:34:43.462Z,17.41
2022-10-31T14:38:05.599Z,17.32
2022-10-31T14:41:35.252Z,17.23
2022-10-31T14:45:01.380Z,17.15
2022-10-31T14:48:17.223Z,17.11
2022-10-31T14:51:22.390Z,17.06
2022-10-31T14:54:30.181Z,17.01
2022-10-31T14:57:37.571Z,16.98
2022-10-31T15:00:40.334Z,16.95
2022-10-31T15:04:10.255Z,16.93
2022-10-31T15:07:14.521Z,16.90
2022-10-31T15:10:22.905Z,16.87
2022-10-31T15:13:26.974Z,16.83
2022-10-31T15:16:35.236Z,16.76
2022-10-31T15:19:38.677Z,16.68
2022-10-31T15:22:41.371Z,16.58
2022-10-31T15:25:46.609Z,16.42
2022-10-31T15:29:08.305Z,16.26
2022-10-31T15:32:23.262Z,16.12
2022-10-31T15:35:27.532Z,16.00
2022-10-31T15:38:31.241Z,15.88
2022-10-31T15:41:36.892Z,15.77
2022-10-31T15:44:44.500Z,15.63
2022-10-31T15:47:50.198Z,15.52
2022-10-31T15:50:56.958Z,15.43
2022-10-31T15:54:00.902Z,15.27
2022-10-31T15:57:03.893Z,15.23
2022-10-31T16:00:22.753Z,15.16
2022-10-31T16:03:28.009Z,15.05
2022-10-31T16:06:31.701Z,14.98
2022-10-31T16:09:34.411Z,14.91
2022-10-31T16:12:39.142Z,14.86
2022-10-31T16:15:59.329Z,14.79
2022-10-31T16:19:15.309Z,14.75
2022-10-31T16:22:23.576Z,14.70
2022-10-31T16:25:29.410Z,14.65
2022-10-31T16:28:39.984Z,14.52
2022-10-31T16:31:44.959Z,14.40
2022-10-31T16:34:47.641Z,14.31
2022-10-31T16:37:50.315Z,14.24
2022-10-31T16:40:54.188Z,14.14
2022-10-31T16:43:56.919Z,14.03
2022-10-31T16:47:13.980Z,13.92
2022-10-31T16:50:19.429Z,13.84
2022-10-31T16:53:22.554Z,13.74
2022-10-31T16:56:30.188Z,13.62
2022-10-31T16:59:34.217Z,13.60
2022-10-31T17:02:38.911Z,13.54
2022-10-31T17:05:41.702Z,13.41
2022-10-31T17:08:44.345Z,13.41
2022-10-31T17:11:50.061Z,13.38
2022-10-31T17:14:56.501Z,13.33
2022-10-31T17:18:00.837Z,13.37
2022-10-31T17:21:06.120Z,13.39
2022-10-31T17:24:13.010Z,13.35
2022-10-31T17:27:15.676Z,13.40
2022-10-31T17:30:19.582Z,13.49
2022-10-31T17:33:23.902Z,13.48
2022-10-31T17:36:27.238Z,13.50
2022-10-31T17:39:29.899Z,13.53
2022-10-31T17:42:33.365Z,13.50
2022-10-31T17:45:35.967Z,13.45
2022-10-31T17:48:40.609Z,13.41
2022-10-31T17:51:43.250Z,13.40
2022-10-31T17:54:46.120Z,13.40
2022-10-31T17:57:48.768Z,13.37
2022-10-31T18:00:51.567Z,13.33
2022-10-31T18:03:55.773Z,13.35
2022-10-31T18:06:58.412Z,13.30
2022-10-31T18:10:01.477Z,13.25
2022-10-31T18:13:04.511Z,13.19
2022-10-31T18:16:10.719Z,13.02
2022-10-31T18:19:16.670Z,12.98
2022-10-31T18:22:19.355Z,12.93
2022-10-31T18:25:22.045Z,12.85
2022-10-31T18:28:24.718Z,12.79
2022-10-31T18:31:27.725Z,12.73
2022-10-31T18:34:31.728Z,12.72
2022-10-31T18:37:34.360Z,12.73
2022-10-31T18:40:37.301Z,12.75
2022-10-31T18:43:40.025Z,12.82
2022-10-31T18:46:42.664Z,12.82
2022-10-31T18:49:46.910Z,12.91
2022-10-31T18:52:49.566Z,12.97
2022-10-31T18:55:52.180Z,12.99
2022-10-31T18:58:54.874Z,12.99
2022-10-31T19:01:57.680Z,13.02
2022-10-31T19:05:01.973Z,13.12
2022-10-31T19:08:04.893Z,13.24
2022-10-31T19:11:09.719Z,13.30
2022-10-31T19:14:14.847Z,13.33
2022-10-31T19:17:17.471Z,13.48
2022-10-31T19:20:21.439Z,13.72
2022-10-31T19:23:24.121Z,13.70
2022-10-31T19:26:27.695Z,13.69
2022-10-31T19:29:30.412Z,13.75
2022-10-31T19:32:38.136Z,13.72
2022-10-31T19:35:44.677Z,13.74
2022-10-31T19:38:50.938Z,13.76
2022-10-31T19:41:56.377Z,13.76
2022-10-31T19:45:01.497Z,13.73
2022-10-31T19:48:06.202Z,13.71
2022-10-31T19:51:14.657Z,13.68
2022-10-31T19:54:19.444Z,13.65
2022-10-31T19:57:41.966Z,13.57
2022-10-31T20:00:49.547Z,13.51
2022-10-31T20:03:54.680Z,13.45
2022-10-31T20:07:01.073Z,13.34
2022-10-31T20:10:06.433Z,13.27
2022-10-31T20:13:11.835Z,13.22
2022-10-31T20:16:18.137Z,13.20
2022-10-31T20:19:24.638Z,13.11
2022-10-31T20:22:30.967Z,13.02
2022-10-31T20:25:36.400Z,13.00
2022-10-31T20:28:43.673Z,13.06
2022-10-31T20:31:50.293Z,13.03
2022-10-31T20:34:55.162Z,13.03
2022-10-31T20:38:01.428Z,12.98
2022-10-31T20:41:08.017Z,12.99
2022-10-31T20:44:12.710Z,12.99
2022-10-31T20:47:20.570Z,12.99
2022-10-31T20:50:29.869Z,12.98
2022-10-31T20:53:35.972Z,12.97
2022-10-31T20:56:42.197Z,12.92
2022-10-31T20:59:47.755Z,12.87
2022-10-31T21:02:52.244Z,12.89
2022-10-31T21:05:58.209Z,12.82
2022-10-31T21:09:04.300Z,12.82
2022-10-31T21:12:09.213Z,12.83
2022-10-31T21:15:17.544Z,12.94
2022-10-31T21:18:24.246Z,13.01
2022-10-31T21:21:32.757Z,13.01
2022-10-31T21:24:39.669Z,13.04
2022-10-31T21:27:44.749Z,13.08
2022-10-31T21:30:52.171Z,13.03
2022-10-31T21:33:57.776Z,12.99
2022-10-31T21:37:02.746Z,12.92
2022-10-31T21:40:11.030Z,12.86
2022-10-31T21:43:16.019Z,12.80
2022-10-31T21:46:22.319Z,12.76
2022-10-31T21:49:26.936Z,12.72
2022-10-31T21:52:33.741Z,12.62
2022-10-31T21:55:38.662Z,12.64
2022-10-31T21:58:43.344Z,12.59
2022-10-31T22:01:48.280Z,12.58
2022-10-31T22:04:52.868Z,12.52
2022-10-31T22:07:57.933Z,12.50
2022-10-31T22:11:07.906Z,12.47
2022-10-31T22:14:15.403Z,12.46
2022-10-31T22:17:20.496Z,12.46
2022-10-31T22:20:26.457Z,12.44
2022-10-31T22:23:31.407Z,12.39
2022-10-31T22:26:40.887Z,12.34
2022-10-31T22:29:46.198Z,12.39
2022-10-31T22:32:51.305Z,12.40
2022-10-31T22:35:56.093Z,12.34
2022-10-31T22:39:02.324Z,12.33
2022-10-31T22:42:13.045Z,12.31
2022-10-31T22:45:18.220Z,12.29
2022-10-31T22:48:23.114Z,12.24
2022-10-31T22:51:29.374Z,12.25
2022-10-31T22:54:34.635Z,12.24
2022-10-31T22:57:41.550Z,12.21
2022-10-31T23:00:46.526Z,12.22
2022-10-31T23:03:52.628Z,12.22
2022-10-31T23:06:57.813Z,12.18
2022-10-31T23:10:02.332Z,12.16
2022-10-31T23:13:25.115Z,12.13
2022-10-31T23:16:29.968Z,12.11
2022-10-31T23:19:34.872Z,12.12
2022-10-31T23:22:39.421Z,12.13
2022-10-31T23:26:03.377Z,12.11
2022-10-31T23:29:09.930Z,12.12
2022-10-31T23:32:19.818Z,12.04
2022-10-31T23:35:24.704Z,12.01
2022-10-31T23:38:31.370Z,12.00
2022-10-31T23:41:36.547Z,11.98
2022-10-31T23:44:43.204Z,11.98
2022-10-31T23:47:48.293Z,11.92
2022-10-31T23:50:53.209Z,11.91
2022-10-31T23:53:58.062Z,11.95
2022-10-31T23:57:03.426Z,11.91
